Orbital elements of FENGYUN 1C DEB
| Launched | 9 May 1999 |
| Flight ended | – |
| Launch site | Taiyuan Space Center, PRC |
| Owner | People's Republic of China |
| NORAD ID | 30350 |
| Date fetched |
Epoch osculation |
Inc. [°] |
Ecc. | RA asc node [hr] |
Arg Peri. [°] |
Mean anom [°] |
Mean motion [rev/day] |
Abs. mag |
| Date fetched |
Epoch osculation |
Inc. [°] |
Ecc. | RA asc node [hr] |
Arg Peri. [°] |
Mean anom [°] |
Mean motion [rev/day] |
Abs. mag |
| 2026 May 05 17:57 | 2026 May 05 10:25:32 | 98.1090 | 0.02173 | 19.2658 | 272.2065 | 143.0133 | 13.83132 | – |
| 2026 May 04 17:57 | 2026 Apr 30 10:37:50 | 98.1085 | 0.02172 | 18.9786 | 286.0659 | 143.0133 | 13.83132 | – |
| 2026 May 03 17:57 | 2026 Apr 30 10:37:50 | 98.1085 | 0.02172 | 18.9786 | 286.0659 | 143.0133 | 13.83132 | – |
| 2026 May 02 17:57 | 2026 Apr 30 10:37:50 | 98.1085 | 0.02172 | 18.9786 | 286.0659 | 143.0133 | 13.83132 | – |
| 2026 May 01 17:56 | 2026 Apr 30 10:37:50 | 98.1085 | 0.02172 | 18.9786 | 286.0659 | 143.0133 | 13.83132 | – |
| 2026 Apr 30 17:56 | 2026 Apr 30 10:37:50 | 98.1085 | 0.02172 | 18.9786 | 286.0659 | 143.0133 | 13.83132 | – |
| 2026 Apr 29 17:57 | 2026 Apr 22 16:39:33 | 98.1075 | 0.02173 | 18.5327 | 307.5771 | 143.0133 | 13.83132 | – |
| 2026 Apr 28 17:56 | 2026 Apr 22 16:39:33 | 98.1075 | 0.02173 | 18.5327 | 307.5771 | 143.0133 | 13.83132 | – |
| 2026 Apr 27 17:58 | 2026 Apr 22 16:39:33 | 98.1075 | 0.02173 | 18.5327 | 307.5771 | 143.0133 | 13.83132 | – |
| 2026 Apr 26 17:58 | 2026 Apr 22 16:39:33 | 98.1075 | 0.02173 | 18.5327 | 307.5771 | 143.0133 | 13.83132 | – |
| 2026 Apr 25 17:58 | 2026 Apr 22 16:39:33 | 98.1075 | 0.02173 | 18.5327 | 307.5771 | 143.0133 | 13.83132 | – |
| 2026 Apr 24 17:59 | 2026 Apr 22 16:39:33 | 98.1075 | 0.02173 | 18.5327 | 307.5771 | 143.0133 | 13.83132 | – |
| 2026 Apr 23 17:57 | 2026 Apr 17 16:51:56 | 98.1069 | 0.02174 | 18.2456 | 321.4242 | 143.0133 | 13.83132 | – |
| 2026 Apr 22 17:57 | 2026 Apr 17 16:51:56 | 98.1069 | 0.02174 | 18.2456 | 321.4242 | 143.0133 | 13.83132 | – |
| 2026 Apr 21 17:57 | 2026 Apr 17 16:51:56 | 98.1069 | 0.02174 | 18.2456 | 321.4242 | 143.0133 | 13.83132 | – |
| 2026 Apr 20 17:57 | 2026 Apr 17 16:51:56 | 98.1069 | 0.02174 | 18.2456 | 321.4242 | 143.0133 | 13.83132 | – |
| 2026 Apr 19 17:58 | 2026 Apr 17 16:51:56 | 98.1069 | 0.02174 | 18.2456 | 321.4242 | 143.0133 | 13.83132 | – |
| 2026 Apr 18 17:56 | 2026 Apr 13 00:33:53 | 98.1065 | 0.02176 | 17.9764 | 334.3977 | 143.0133 | 13.83132 | – |
| 2026 Apr 16 17:57 | 2026 Apr 13 00:33:53 | 98.1065 | 0.02176 | 17.9764 | 334.3977 | 143.0133 | 13.83132 | – |
| 2026 Apr 14 17:57 | 2026 Apr 13 00:33:53 | 98.1065 | 0.02176 | 17.9764 | 334.3977 | 143.0133 | 13.83132 | – |
| 2026 Apr 13 17:57 | 2026 Apr 13 00:33:53 | 98.1065 | 0.02176 | 17.9764 | 334.3977 | 143.0133 | 13.83132 | – |
| 2026 Apr 12 17:57 | 2026 Apr 08 10:49:23 | 98.1060 | 0.02178 | 17.7134 | 347.0628 | 143.0133 | 13.83132 | – |
| 2026 Apr 11 17:57 | 2026 Apr 08 10:49:23 | 98.1060 | 0.02178 | 17.7134 | 347.0628 | 143.0133 | 13.83132 | – |
| 2026 Apr 10 17:58 | 2026 Apr 08 10:49:23 | 98.1060 | 0.02178 | 17.7134 | 347.0628 | 143.0133 | 13.83132 | – |
| 2026 Apr 09 18:01 | 2026 Apr 08 10:49:23 | 98.1060 | 0.02178 | 17.7134 | 347.0628 | 143.0133 | 13.83132 | – |
| 2026 Apr 08 17:57 | 2026 Apr 08 10:49:23 | 98.1060 | 0.02178 | 17.7134 | 347.0628 | 143.0133 | 13.83132 | – |